createdAt,value
2023-04-03T00:01:19.257Z,3.00
2023-04-03T00:03:46.709Z,3.20
2023-04-03T00:06:14.325Z,3.00
2023-04-03T00:08:47.042Z,3.00
2023-04-03T00:11:14.150Z,3.00
2023-04-03T00:13:41.829Z,3.00
2023-04-03T00:16:10.835Z,2.90
2023-04-03T00:18:38.862Z,2.90
2023-04-03T00:21:06.965Z,3.00
2023-04-03T00:23:34.612Z,2.90
2023-04-03T00:26:02.042Z,2.80
2023-04-03T00:28:30.394Z,2.80
2023-04-03T00:30:57.683Z,2.80
2023-04-03T00:33:25.665Z,2.70
2023-04-03T00:35:52.918Z,2.90
2023-04-03T00:38:20.646Z,2.80
2023-04-03T00:40:49.500Z,2.70
2023-04-03T00:43:24.247Z,2.80
2023-04-03T00:45:57.313Z,2.80
2023-04-03T00:48:32.970Z,2.80
2023-04-03T00:51:01.351Z,2.60
2023-04-03T00:53:34.427Z,2.60
2023-04-03T00:56:01.748Z,2.60
2023-04-03T00:58:44.802Z,2.60
2023-04-03T01:01:16.332Z,2.60
2023-04-03T01:03:44.835Z,2.40
2023-04-03T01:06:13.300Z,2.40
2023-04-03T01:08:40.553Z,2.40
2023-04-03T01:11:07.559Z,2.40
2023-04-03T01:13:35.089Z,2.40
2023-04-03T01:16:07.184Z,2.40
2023-04-03T01:18:37.034Z,2.40
2023-04-03T01:21:21.287Z,2.30
2023-04-03T01:23:57.433Z,2.30
2023-04-03T01:26:25.247Z,2.20
2023-04-03T01:28:54.157Z,2.20
2023-04-03T01:31:55.295Z,2.20
2023-04-03T01:34:22.511Z,2.20
2023-04-03T01:36:51.632Z,2.20
2023-04-03T01:39:19.375Z,2.30
2023-04-03T01:41:46.739Z,2.20
2023-04-03T01:44:21.361Z,2.50
2023-04-03T01:46:49.321Z,2.40
2023-04-03T01:49:18.080Z,2.40
2023-04-03T01:51:45.623Z,2.50
2023-04-03T01:54:13.222Z,2.40
2023-04-03T01:56:40.841Z,2.40
2023-04-03T01:59:08.861Z,2.30
2023-04-03T02:01:37.285Z,2.40
2023-04-03T02:04:05.836Z,2.40
2023-04-03T02:06:32.768Z,2.30
2023-04-03T02:08:59.718Z,2.30
2023-04-03T02:11:26.728Z,2.20
2023-04-03T02:13:53.719Z,2.30
2023-04-03T02:16:21.977Z,2.20
2023-04-03T02:18:52.237Z,2.20
2023-04-03T02:21:19.229Z,2.20
2023-04-03T02:23:49.877Z,2.20
2023-04-03T02:26:18.461Z,2.20
2023-04-03T02:28:46.890Z,2.20
2023-04-03T02:31:13.893Z,2.10
2023-04-03T02:33:43.088Z,2.10
2023-04-03T02:36:12.545Z,2.10
2023-04-03T02:38:43.542Z,2.10
2023-04-03T02:41:13.983Z,2.00
2023-04-03T02:43:43.839Z,1.90
2023-04-03T02:46:11.880Z,1.90
2023-04-03T02:48:40.392Z,1.90
2023-04-03T02:51:07.356Z,1.80
2023-04-03T02:53:34.418Z,1.80
2023-04-03T02:56:09.244Z,1.80
2023-04-03T02:58:36.630Z,1.80
2023-04-03T03:01:05.592Z,1.90
2023-04-03T03:03:32.582Z,1.70
2023-04-03T03:06:08.347Z,1.60
2023-04-03T03:08:36.246Z,1.60
2023-04-03T03:11:04.901Z,1.60
2023-04-03T03:13:32.530Z,1.60
2023-04-03T03:16:00.119Z,1.80
2023-04-03T03:18:27.276Z,1.50
2023-04-03T03:21:00.252Z,1.50
2023-04-03T03:23:29.216Z,1.50
2023-04-03T03:26:02.613Z,1.40
2023-04-03T03:28:29.951Z,1.50
2023-04-03T03:30:59.303Z,1.50
2023-04-03T03:33:27.333Z,1.40
2023-04-03T03:36:04.484Z,1.40
2023-04-03T03:38:31.591Z,1.40
2023-04-03T03:41:00.203Z,1.20
2023-04-03T03:43:28.528Z,1.20
2023-04-03T03:45:56.050Z,1.30
2023-04-03T03:48:25.034Z,1.20
2023-04-03T03:50:52.448Z,1.50
2023-04-03T03:53:23.190Z,1.20
2023-04-03T03:55:53.582Z,1.10
2023-04-03T03:58:26.068Z,1.10
2023-04-03T04:00:53.444Z,1.00
2023-04-03T04:03:20.804Z,1.20
2023-04-03T04:05:49.485Z,0.90
2023-04-03T04:08:17.511Z,1.10
2023-04-03T04:10:45.933Z,0.90
2023-04-03T04:13:14.864Z,1.00
2023-04-03T04:15:42.903Z,1.00
2023-04-03T04:18:10.405Z,1.00
2023-04-03T04:20:38.427Z,1.00
2023-04-03T04:23:05.501Z,1.00
2023-04-03T04:25:33.802Z,1.00
2023-04-03T04:28:01.555Z,1.00
2023-04-03T04:30:28.716Z,1.00
2023-04-03T04:32:57.415Z,1.20
2023-04-03T04:35:26.735Z,1.20
2023-04-03T04:37:54.072Z,1.00
2023-04-03T04:40:23.612Z,1.00
2023-04-03T04:42:51.048Z,1.00
2023-04-03T04:45:18.396Z,1.00
2023-04-03T04:47:47.587Z,1.00
2023-04-03T04:50:16.030Z,1.00
2023-04-03T04:52:46.225Z,1.20
2023-04-03T04:55:13.250Z,1.00
2023-04-03T04:57:40.351Z,1.20
2023-04-03T05:00:09.230Z,1.00
2023-04-03T05:02:37.946Z,1.00
2023-04-03T05:05:05.975Z,1.00
2023-04-03T05:07:34.509Z,1.00
2023-04-03T05:10:03.561Z,0.90
2023-04-03T05:12:36.202Z,0.90
2023-04-03T05:15:11.859Z,0.90
2023-04-03T05:17:39.106Z,0.90
2023-04-03T05:20:10.987Z,0.90
2023-04-03T05:22:38.495Z,0.90
2023-04-03T05:25:09.618Z,0.90
2023-04-03T05:27:37.629Z,0.90
2023-04-03T05:30:05.449Z,0.90
2023-04-03T05:32:34.705Z,0.90
2023-04-03T05:35:13.788Z,1.10
2023-04-03T05:37:42.340Z,1.00
2023-04-03T05:40:10.368Z,0.90
2023-04-03T05:42:43.728Z,1.00
2023-04-03T05:45:11.715Z,1.00
2023-04-03T05:47:39.851Z,1.00
2023-04-03T05:50:11.675Z,1.00
2023-04-03T05:52:44.048Z,1.10
2023-04-03T05:55:12.845Z,1.10
2023-04-03T05:57:40.333Z,1.20
2023-04-03T06:00:11.094Z,1.20
2023-04-03T06:02:41.274Z,1.20
2023-04-03T06:05:14.353Z,1.20
2023-04-03T06:07:41.798Z,1.30
2023-04-03T06:10:15.512Z,1.30
2023-04-03T06:12:42.830Z,1.40
2023-04-03T06:15:11.349Z,1.50
2023-04-03T06:17:40.813Z,1.60
2023-04-03T06:20:09.362Z,1.70
2023-04-03T06:22:37.029Z,1.80
2023-04-03T06:25:04.907Z,1.90
2023-04-03T06:27:32.026Z,1.90
2023-04-03T06:29:59.289Z,2.00
2023-04-03T06:32:26.303Z,2.10
2023-04-03T06:34:54.506Z,2.10
2023-04-03T06:37:24.292Z,2.30
2023-04-03T06:39:52.613Z,2.40
2023-04-03T06:42:19.611Z,2.60
2023-04-03T06:44:54.181Z,2.60
2023-04-03T06:47:21.333Z,2.50
2023-04-03T06:49:48.863Z,2.50
2023-04-03T06:52:15.788Z,2.60
2023-04-03T06:54:42.741Z,2.70
2023-04-03T06:57:10.038Z,2.70
2023-04-03T06:59:37.772Z,2.80
2023-04-03T07:02:05.560Z,3.00
2023-04-03T07:04:32.840Z,3.20
2023-04-03T07:06:59.855Z,3.10
2023-04-03T07:09:29.589Z,3.10
2023-04-03T07:11:56.777Z,3.20
2023-04-03T07:14:23.819Z,3.30
2023-04-03T07:16:50.776Z,3.30
2023-04-03T07:19:19.438Z,3.40
2023-04-03T07:21:46.701Z,3.60
2023-04-03T07:24:16.172Z,3.70
2023-04-03T07:26:46.442Z,3.60
2023-04-03T07:29:13.573Z,3.70
2023-04-03T07:31:42.890Z,3.90
2023-04-03T07:34:11.212Z,3.90
2023-04-03T07:36:38.789Z,4.00
2023-04-03T07:39:05.764Z,4.00
2023-04-03T07:41:32.726Z,4.10
2023-04-03T07:43:59.705Z,4.30
2023-04-03T07:46:27.236Z,4.40
2023-04-03T07:48:55.252Z,4.70
2023-04-03T07:51:23.285Z,4.70
2023-04-03T07:53:51.941Z,4.90
2023-04-03T07:56:21.834Z,5.20
2023-04-03T07:58:48.823Z,5.20
2023-04-03T08:01:16.932Z,5.40
2023-04-03T08:03:44.413Z,5.40
2023-04-03T08:06:15.991Z,5.40
2023-04-03T08:08:43.558Z,5.70
2023-04-03T08:11:11.663Z,5.30
2023-04-03T08:13:39.743Z,5.40
2023-04-03T08:16:12.295Z,5.40
2023-04-03T08:18:40.203Z,5.60
2023-04-03T08:21:09.175Z,5.70
2023-04-03T08:23:36.322Z,5.80
2023-04-03T08:26:19.366Z,6.10
2023-04-03T08:28:46.468Z,6.10
2023-04-03T08:31:16.641Z,6.30
2023-04-03T08:33:43.999Z,6.50
2023-04-03T08:36:22.963Z,6.30
2023-04-03T08:38:52.758Z,6.20
2023-04-03T08:41:34.229Z,6.20
2023-04-03T08:44:01.505Z,6.20
2023-04-03T08:46:59.596Z,6.30
2023-04-03T08:49:57.271Z,6.60
2023-04-03T08:52:37.166Z,6.40
2023-04-03T08:55:19.402Z,6.60
2023-04-03T08:57:49.632Z,6.80
2023-04-03T09:00:27.610Z,7.10
2023-04-03T09:02:57.943Z,7.20
2023-04-03T09:05:41.312Z,7.30
2023-04-03T09:08:32.523Z,7.40
2023-04-03T09:11:27.853Z,7.60
2023-04-03T09:14:12.250Z,7.40
2023-04-03T09:16:59.689Z,7.40
2023-04-03T09:19:32.604Z,7.50
2023-04-03T09:22:11.680Z,7.50
2023-04-03T09:24:39.320Z,7.40
2023-04-03T09:27:09.149Z,7.30
2023-04-03T09:29:47.338Z,7.50
2023-04-03T09:32:30.307Z,7.50
2023-04-03T09:35:25.263Z,7.40
2023-04-03T09:38:17.545Z,7.60
2023-04-03T09:41:04.968Z,7.70
2023-04-03T09:43:35.020Z,7.60
2023-04-03T09:46:39.976Z,7.60
2023-04-03T09:49:11.900Z,7.80
2023-04-03T09:51:39.245Z,7.90
2023-04-03T09:54:38.761Z,8.00
2023-04-03T09:57:11.309Z,8.00
2023-04-03T09:59:47.057Z,7.90
2023-04-03T10:02:37.038Z,7.90
2023-04-03T10:05:09.835Z,7.90
2023-04-03T10:07:44.686Z,7.80
2023-04-03T10:10:26.902Z,7.90
2023-04-03T10:13:16.433Z,8.00
2023-04-03T10:16:08.831Z,8.00
2023-04-03T10:19:08.183Z,7.90
2023-04-03T10:21:47.340Z,8.10
2023-04-03T10:24:25.147Z,8.00
2023-04-03T10:27:00.118Z,8.10
2023-04-03T10:29:53.078Z,8.10
2023-04-03T10:32:49.946Z,8.20
2023-04-03T10:35:36.700Z,8.30
2023-04-03T10:38:28.376Z,8.60
2023-04-03T10:41:26.880Z,8.90
2023-04-03T10:44:20.562Z,9.00
2023-04-03T10:46:57.216Z,9.00
2023-04-03T10:49:42.464Z,9.10
2023-04-03T10:52:22.540Z,9.30
2023-04-03T10:55:13.073Z,9.10
2023-04-03T10:57:44.272Z,8.90
2023-04-03T11:00:43.502Z,8.70
2023-04-03T11:03:31.507Z,8.90
2023-04-03T11:06:04.929Z,9.10
2023-04-03T11:08:40.723Z,9.40
2023-04-03T11:11:14.106Z,9.60
2023-04-03T11:13:58.025Z,9.70
2023-04-03T11:16:32.033Z,9.50
2023-04-03T11:19:05.133Z,9.40
2023-04-03T11:22:13.621Z,9.60
2023-04-03T11:24:44.268Z,9.60
2023-04-03T11:27:23.863Z,9.90
2023-04-03T11:29:53.360Z,10.10
2023-04-03T11:32:38.884Z,10.30
2023-04-03T11:35:08.478Z,10.30
2023-04-03T11:37:41.681Z,10.20
2023-04-03T11:40:19.186Z,10.10
2023-04-03T11:43:20.496Z,10.10
2023-04-03T11:46:00.670Z,9.90
2023-04-03T11:48:34.209Z,9.70
2023-04-03T11:51:27.728Z,9.90
2023-04-03T11:53:56.204Z,10.30
2023-04-03T11:56:28.970Z,10.60
2023-04-03T11:59:16.652Z,10.70
2023-04-03T12:01:51.080Z,10.80
2023-04-03T12:04:21.176Z,10.70
2023-04-03T12:06:48.377Z,11.00
2023-04-03T12:09:33.397Z,11.20
2023-04-03T12:12:03.064Z,11.40
2023-04-03T12:14:30.561Z,11.30
2023-04-03T12:16:59.148Z,11.30
2023-04-03T12:19:42.395Z,11.50
2023-04-03T12:22:14.725Z,11.30
2023-04-03T12:24:45.128Z,10.90
2023-04-03T12:27:31.531Z,10.90
2023-04-03T12:30:04.850Z,11.00
2023-04-03T12:32:41.734Z,11.20
2023-04-03T12:35:19.650Z,11.40
2023-04-03T12:38:18.192Z,11.70
2023-04-03T12:40:49.323Z,11.70
2023-04-03T12:43:36.548Z,11.60
2023-04-03T12:46:09.901Z,11.50
2023-04-03T12:48:52.360Z,11.60
2023-04-03T12:51:31.520Z,11.80
2023-04-03T12:54:17.998Z,11.70
2023-04-03T12:56:46.552Z,11.70
2023-04-03T12:59:28.247Z,12.40
2023-04-03T13:02:02.412Z,12.50
2023-04-03T13:04:32.721Z,13.20
2023-04-03T13:06:59.982Z,13.20
2023-04-03T13:09:33.828Z,13.50
2023-04-03T13:12:18.052Z,14.30
2023-04-03T13:14:57.896Z,15.10
2023-04-03T13:17:26.211Z,15.90
2023-04-03T13:19:53.490Z,16.90
2023-04-03T13:22:49.461Z,18.00
2023-04-03T13:25:22.783Z,16.90
2023-04-03T13:27:53.869Z,18.10
2023-04-03T13:30:40.471Z,17.70
2023-04-03T13:33:23.535Z,18.60
2023-04-03T13:36:07.120Z,20.00
2023-04-03T13:38:35.081Z,19.90
2023-04-03T13:41:06.493Z,19.60
2023-04-03T13:43:37.308Z,19.70
2023-04-03T13:46:13.409Z,21.00
2023-04-03T13:48:47.598Z,20.20
2023-04-03T13:51:14.650Z,21.10
2023-04-03T13:54:02.148Z,22.70
2023-04-03T13:56:43.081Z,23.30
2023-04-03T13:59:17.663Z,24.30
2023-04-03T14:01:51.208Z,23.70
2023-04-03T14:04:22.913Z,24.20
2023-04-03T14:06:50.807Z,24.10
2023-04-03T14:09:19.463Z,23.90
2023-04-03T14:11:49.682Z,24.10
2023-04-03T14:14:20.688Z,23.40
2023-04-03T14:17:01.533Z,22.00
2023-04-03T14:19:35.218Z,22.50
2023-04-03T14:22:18.996Z,24.10
2023-04-03T14:24:47.516Z,25.00
2023-04-03T14:27:40.565Z,24.50
2023-04-03T14:30:18.632Z,23.10
2023-04-03T14:32:46.049Z,21.60
2023-04-03T14:35:13.433Z,22.60
2023-04-03T14:37:41.249Z,23.90
2023-04-03T14:40:09.857Z,24.60
2023-04-03T14:42:40.890Z,23.90
2023-04-03T14:45:12.028Z,24.80
2023-04-03T14:47:48.938Z,25.40
2023-04-03T14:50:20.366Z,25.10
2023-04-03T14:52:49.134Z,24.60
2023-04-03T14:55:18.066Z,25.20
2023-04-03T14:57:45.485Z,25.60
2023-04-03T15:00:24.089Z,24.20
2023-04-03T15:02:51.493Z,24.20
2023-04-03T15:05:20.269Z,23.90
2023-04-03T15:07:59.201Z,24.70
2023-04-03T15:10:31.288Z,25.00
2023-04-03T15:12:58.791Z,25.30
2023-04-03T15:15:31.349Z,25.60
2023-04-03T15:17:59.247Z,25.60
2023-04-03T15:20:31.616Z,26.10
2023-04-03T15:23:01.664Z,25.90
2023-04-03T15:25:29.013Z,24.90
2023-04-03T15:27:57.605Z,24.90
2023-04-03T15:30:25.045Z,26.00
2023-04-03T15:32:52.228Z,26.50
2023-04-03T15:35:19.749Z,26.40
2023-04-03T15:37:49.227Z,26.50
2023-04-03T15:40:18.599Z,26.70
2023-04-03T15:42:46.072Z,26.20
2023-04-03T15:45:15.879Z,24.80
2023-04-03T15:47:43.475Z,24.30
2023-04-03T15:50:10.969Z,25.20
2023-04-03T15:52:38.024Z,26.00
2023-04-03T15:55:06.235Z,26.80
2023-04-03T16:00:06.139Z,26.00
2023-04-03T16:02:35.066Z,26.50
2023-04-03T16:05:03.948Z,25.60
2023-04-03T16:07:32.803Z,24.30
2023-04-03T16:10:00.018Z,24.90
2023-04-03T16:12:27.107Z,24.60
2023-04-03T16:14:54.000Z,25.10
2023-04-03T16:17:21.290Z,24.10
2023-04-03T16:19:48.410Z,24.30
2023-04-03T16:22:16.190Z,24.80
2023-04-03T16:24:45.989Z,25.00
2023-04-03T16:27:12.976Z,25.50
2023-04-03T16:29:40.038Z,25.00
2023-04-03T16:32:08.218Z,24.30
2023-04-03T16:34:36.321Z,23.70
2023-04-03T16:37:03.308Z,23.90
2023-04-03T16:39:30.572Z,24.50
2023-04-03T16:41:57.616Z,25.30
2023-04-03T16:44:24.736Z,26.00
2023-04-03T16:46:51.978Z,26.70
2023-04-03T16:49:19.374Z,27.30
2023-04-03T16:51:46.692Z,27.40
2023-04-03T16:54:15.052Z,27.10
2023-04-03T16:56:44.736Z,26.90
2023-04-03T16:59:11.704Z,26.80
2023-04-03T17:01:38.777Z,25.00
2023-04-03T17:04:06.738Z,24.50
2023-04-03T17:06:33.833Z,24.50
2023-04-03T17:09:01.022Z,24.70
2023-04-03T17:11:30.595Z,24.80
2023-04-03T17:13:58.006Z,24.60
2023-04-03T17:16:26.460Z,24.70
2023-04-03T17:18:55.060Z,23.80
2023-04-03T17:21:23.682Z,23.10
2023-04-03T17:23:55.112Z,20.90
2023-04-03T17:26:23.721Z,18.40
2023-04-03T17:28:53.317Z,16.80
2023-04-03T17:31:20.878Z,15.30
2023-04-03T17:33:51.389Z,14.70
2023-04-03T17:36:18.413Z,14.10
2023-04-03T17:38:45.353Z,13.70
2023-04-03T17:41:12.516Z,13.40
2023-04-03T17:43:39.427Z,13.10
2023-04-03T17:46:09.193Z,12.50
2023-04-03T17:48:37.935Z,12.20
2023-04-03T17:51:06.675Z,12.00
2023-04-03T17:53:33.656Z,11.70
2023-04-03T17:56:07.326Z,11.40
2023-04-03T17:58:36.273Z,11.30
2023-04-03T18:01:16.115Z,11.00
2023-04-03T18:03:44.186Z,10.80
2023-04-03T18:06:15.072Z,10.70
2023-04-03T18:09:07.092Z,10.60
2023-04-03T18:11:34.711Z,10.20
2023-04-03T18:14:03.591Z,10.00
2023-04-03T18:16:31.541Z,9.90
2023-04-03T18:19:17.593Z,9.80
2023-04-03T18:21:47.907Z,9.70
2023-04-03T18:24:16.881Z,9.50
2023-04-03T18:26:46.893Z,9.40
2023-04-03T18:29:16.217Z,9.40
2023-04-03T18:31:48.124Z,9.20
2023-04-03T18:34:15.157Z,9.10
2023-04-03T18:36:42.606Z,9.10
2023-04-03T18:39:09.687Z,9.00
2023-04-03T18:41:38.161Z,9.00
2023-04-03T18:44:10.462Z,9.00
2023-04-03T18:49:05.469Z,8.80
2023-04-03T18:51:32.554Z,8.80
2023-04-03T18:53:59.830Z,8.80
2023-04-03T18:56:27.974Z,8.70
2023-04-03T18:58:55.066Z,8.70
2023-04-03T19:01:22.352Z,8.70
2023-04-03T19:03:49.523Z,8.60
2023-04-03T19:06:18.320Z,8.60
2023-04-03T19:08:45.677Z,8.50
2023-04-03T19:11:13.071Z,8.50
2023-04-03T19:13:51.794Z,8.40
2023-04-03T19:16:27.405Z,8.20
2023-04-03T19:18:54.803Z,8.20
2023-04-03T19:21:21.896Z,8.10
2023-04-03T19:23:48.982Z,8.00
2023-04-03T19:26:15.984Z,8.10
2023-04-03T19:28:44.071Z,8.00
2023-04-03T19:31:14.022Z,8.00
2023-04-03T19:33:42.172Z,7.90
2023-04-03T19:36:10.600Z,7.80
2023-04-03T19:38:38.168Z,7.90
2023-04-03T19:41:12.131Z,8.00
2023-04-03T19:43:39.442Z,7.80
2023-04-03T19:46:08.517Z,7.70
2023-04-03T19:48:36.293Z,7.70
2023-04-03T19:51:06.198Z,7.70
2023-04-03T19:53:33.394Z,7.60
2023-04-03T19:56:01.153Z,7.50
2023-04-03T19:58:30.091Z,7.40
2023-04-03T20:00:59.797Z,7.40
2023-04-03T20:03:27.313Z,7.30
2023-04-03T20:05:57.738Z,7.40
2023-04-03T20:08:28.554Z,7.20
2023-04-03T20:10:56.184Z,7.20
2023-04-03T20:13:23.331Z,7.20
2023-04-03T20:15:50.576Z,7.30
2023-04-03T20:18:20.875Z,7.20
2023-04-03T20:20:56.511Z,7.10
2023-04-03T20:23:24.346Z,7.10
2023-04-03T20:26:05.946Z,7.00
2023-04-03T20:28:42.128Z,7.00
2023-04-03T20:31:10.352Z,7.00
2023-04-03T20:33:42.180Z,6.70
2023-04-03T20:36:09.541Z,6.70
2023-04-03T20:38:36.829Z,6.70
2023-04-03T20:41:05.426Z,6.70
2023-04-03T20:43:32.356Z,6.60
2023-04-03T20:46:03.311Z,6.70
2023-04-03T20:48:36.157Z,6.70
2023-04-03T20:51:18.401Z,6.60
2023-04-03T20:53:49.318Z,6.60
2023-04-03T20:56:16.893Z,6.50
2023-04-03T20:58:46.816Z,6.50
2023-04-03T21:01:17.541Z,6.40
2023-04-03T21:03:46.531Z,6.40
2023-04-03T21:06:51.005Z,6.40
2023-04-03T21:09:56.812Z,6.30
2023-04-03T21:13:01.581Z,6.30
2023-04-03T21:15:50.052Z,6.30
2023-04-03T21:18:51.308Z,6.20
2023-04-03T21:21:24.476Z,6.20
2023-04-03T21:23:53.338Z,6.10
2023-04-03T21:26:22.559Z,6.20
2023-04-03T21:28:52.562Z,6.10
2023-04-03T21:31:22.855Z,6.10
2023-04-03T21:33:50.745Z,6.20
2023-04-03T21:36:19.030Z,6.10
2023-04-03T21:38:48.063Z,6.00
2023-04-03T21:41:14.987Z,6.00
2023-04-03T21:43:42.173Z,6.00
2023-04-03T21:46:09.385Z,5.90
2023-04-03T21:48:36.833Z,5.80
2023-04-03T21:51:05.109Z,5.80
2023-04-03T21:53:32.512Z,5.80
2023-04-03T21:56:00.739Z,5.70
2023-04-03T21:58:30.887Z,5.80
2023-04-03T22:01:07.638Z,5.70
2023-04-03T22:03:35.108Z,5.60
2023-04-03T22:06:02.093Z,5.70
2023-04-03T22:08:29.368Z,5.60
2023-04-03T22:11:15.000Z,5.60
2023-04-03T22:13:43.214Z,5.50
2023-04-03T22:16:12.348Z,5.70
2023-04-03T22:18:41.283Z,5.70
2023-04-03T22:21:08.627Z,5.40
2023-04-03T22:23:36.086Z,5.30
2023-04-03T22:26:05.820Z,5.20
2023-04-03T22:28:35.382Z,5.20
2023-04-03T22:31:13.585Z,5.20
2023-04-03T22:33:41.710Z,5.20
2023-04-03T22:36:10.381Z,5.20
2023-04-03T22:38:39.044Z,5.20
2023-04-03T22:41:07.968Z,5.20
2023-04-03T22:43:36.656Z,5.10
2023-04-03T22:46:07.573Z,5.00
2023-04-03T22:48:35.054Z,5.00
2023-04-03T22:51:07.434Z,5.10
2023-04-03T22:53:38.127Z,5.10
2023-04-03T22:56:11.426Z,5.20
2023-04-03T22:58:39.242Z,5.00
2023-04-03T23:01:13.761Z,5.10
2023-04-03T23:03:42.921Z,4.90
2023-04-03T23:06:10.592Z,5.00
2023-04-03T23:08:39.131Z,4.80
2023-04-03T23:11:09.671Z,4.80
2023-04-03T23:13:41.867Z,4.70
2023-04-03T23:16:09.098Z,4.60
2023-04-03T23:18:39.888Z,4.70
2023-04-03T23:21:09.634Z,4.60
2023-04-03T23:23:36.698Z,4.50
2023-04-03T23:26:06.100Z,4.50
2023-04-03T23:28:33.479Z,4.50
2023-04-03T23:31:02.983Z,4.50
2023-04-03T23:33:32.790Z,4.70
2023-04-03T23:36:01.336Z,4.40
2023-04-03T23:38:28.481Z,4.40
2023-04-03T23:40:55.917Z,4.30
2023-04-03T23:43:22.923Z,4.40
2023-04-03T23:45:50.176Z,4.40
2023-04-03T23:48:17.708Z,4.40
2023-04-03T23:50:44.786Z,4.30
2023-04-03T23:53:14.460Z,4.20
2023-04-03T23:55:42.314Z,4.20
2023-04-03T23:58:13.520Z,4.30
